sensor_id;sensor_type;location;lat;lon;timestamp;temperature;humidity
20929;DHT22;21895;47.072;15.132;2024-01-30T00:01:57;-3.50;99.90
20929;DHT22;21895;47.072;15.132;2024-01-30T00:04:24;-3.50;99.90
20929;DHT22;21895;47.072;15.132;2024-01-30T00:06:51;-3.50;99.90
20929;DHT22;21895;47.072;15.132;2024-01-30T00:09:19;-3.70;99.90
20929;DHT22;21895;47.072;15.132;2024-01-30T00:11:45;-3.80;99.90
20929;DHT22;21895;47.072;15.132;2024-01-30T00:14:12;-4.00;99.90
20929;DHT22;21895;47.072;15.132;2024-01-30T00:16:38;-4.10;99.90
20929;DHT22;21895;47.072;15.132;2024-01-30T00:19:05;-4.20;99.90
20929;DHT22;21895;47.072;15.132;2024-01-30T00:21:32;-4.00;99.90
20929;DHT22;21895;47.072;15.132;2024-01-30T00:23:58;-3.90;99.90
20929;DHT22;21895;47.072;15.132;2024-01-30T00:26:25;-3.80;99.90
20929;DHT22;21895;47.072;15.132;2024-01-30T00:28:51;-3.80;99.90
20929;DHT22;21895;47.072;15.132;2024-01-30T00:31:18;-3.80;99.90
20929;DHT22;21895;47.072;15.132;2024-01-30T00:33:45;-4.00;99.90
20929;DHT22;21895;47.072;15.132;2024-01-30T00:36:12;-4.00;99.90
20929;DHT22;21895;47.072;15.132;2024-01-30T00:38:38;-3.90;99.90
20929;DHT22;21895;47.072;15.132;2024-01-30T00:41:08;-3.90;99.90
20929;DHT22;21895;47.072;15.132;2024-01-30T00:43:35;-3.80;99.90
20929;DHT22;21895;47.072;15.132;2024-01-30T00:46:02;-3.80;99.90
20929;DHT22;21895;47.072;15.132;2024-01-30T00:48:29;-3.80;99.90
20929;DHT22;21895;47.072;15.132;2024-01-30T00:50:56;-3.70;99.90
20929;DHT22;21895;47.072;15.132;2024-01-30T00:53:22;-3.90;99.90
20929;DHT22;21895;47.072;15.132;2024-01-30T00:55:52;-4.10;99.90
20929;DHT22;21895;47.072;15.132;2024-01-30T00:58:18;-4.00;99.90
20929;DHT22;21895;47.072;15.132;2024-01-30T01:00:45;-4.10;99.90
20929;DHT22;21895;47.072;15.132;2024-01-30T01:03:12;-4.10;99.90
20929;DHT22;21895;47.072;15.132;2024-01-30T01:05:40;-4.10;99.90
20929;DHT22;21895;47.072;15.132;2024-01-30T01:08:06;-4.10;99.90
20929;DHT22;21895;47.072;15.132;2024-01-30T01:10:33;-4.10;99.90
20929;DHT22;21895;47.072;15.132;2024-01-30T01:13:00;-4.20;99.90
20929;DHT22;21895;47.072;15.132;2024-01-30T01:15:26;-4.20;99.90
20929;DHT22;21895;47.072;15.132;2024-01-30T01:17:56;-4.20;99.90
20929;DHT22;21895;47.072;15.132;2024-01-30T01:20:22;-4.20;99.90
20929;DHT22;21895;47.072;15.132;2024-01-30T01:22:49;-4.20;99.90
20929;DHT22;21895;47.072;15.132;2024-01-30T01:25:16;-4.30;99.90
20929;DHT22;21895;47.072;15.132;2024-01-30T01:27:42;-4.40;99.90
20929;DHT22;21895;47.072;15.132;2024-01-30T01:30:11;-4.40;99.90
20929;DHT22;21895;47.072;15.132;2024-01-30T01:32:40;-4.40;99.90
20929;DHT22;21895;47.072;15.132;2024-01-30T01:35:15;-4.30;99.90
20929;DHT22;21895;47.072;15.132;2024-01-30T01:37:41;-4.40;99.90
20929;DHT22;21895;47.072;15.132;2024-01-30T01:40:09;-4.60;99.90
20929;DHT22;21895;47.072;15.132;2024-01-30T01:42:35;-4.50;99.90
20929;DHT22;21895;47.072;15.132;2024-01-30T01:45:02;-4.50;99.90
20929;DHT22;21895;47.072;15.132;2024-01-30T01:47:29;-4.50;99.90
20929;DHT22;21895;47.072;15.132;2024-01-30T01:49:56;-4.50;99.90
20929;DHT22;21895;47.072;15.132;2024-01-30T01:52:23;-4.40;99.90
20929;DHT22;21895;47.072;15.132;2024-01-30T01:54:49;-4.40;99.90
20929;DHT22;21895;47.072;15.132;2024-01-30T01:57:17;-4.40;99.90
20929;DHT22;21895;47.072;15.132;2024-01-30T01:59:43;-4.40;99.90
20929;DHT22;21895;47.072;15.132;2024-01-30T02:02:11;-4.50;99.90
20929;DHT22;21895;47.072;15.132;2024-01-30T02:04:41;-4.30;99.90
20929;DHT22;21895;47.072;15.132;2024-01-30T02:07:09;-4.10;99.90
20929;DHT22;21895;47.072;15.132;2024-01-30T02:09:36;-3.80;99.90
20929;DHT22;21895;47.072;15.132;2024-01-30T02:12:03;-3.90;99.90
20929;DHT22;21895;47.072;15.132;2024-01-30T02:14:30;-4.00;99.90
20929;DHT22;21895;47.072;15.132;2024-01-30T02:16:57;-4.30;99.90
20929;DHT22;21895;47.072;15.132;2024-01-30T02:19:23;-4.70;99.90
20929;DHT22;21895;47.072;15.132;2024-01-30T02:21:50;-4.90;99.90
20929;DHT22;21895;47.072;15.132;2024-01-30T02:24:18;-4.80;99.90
20929;DHT22;21895;47.072;15.132;2024-01-30T02:26:45;-4.80;99.90
20929;DHT22;21895;47.072;15.132;2024-01-30T02:29:11;-4.80;99.90
20929;DHT22;21895;47.072;15.132;2024-01-30T02:31:38;-4.60;99.90
20929;DHT22;21895;47.072;15.132;2024-01-30T02:34:04;-4.40;99.90
20929;DHT22;21895;47.072;15.132;2024-01-30T02:36:31;-4.40;99.90
20929;DHT22;21895;47.072;15.132;2024-01-30T02:38:58;-4.30;99.90
20929;DHT22;21895;47.072;15.132;2024-01-30T02:41:24;-4.30;99.90
20929;DHT22;21895;47.072;15.132;2024-01-30T02:43:51;-4.20;99.90
20929;DHT22;21895;47.072;15.132;2024-01-30T02:46:17;-4.30;99.90
20929;DHT22;21895;47.072;15.132;2024-01-30T02:48:44;-4.40;99.90
20929;DHT22;21895;47.072;15.132;2024-01-30T02:51:11;-4.40;99.90
20929;DHT22;21895;47.072;15.132;2024-01-30T02:53:37;-4.50;99.90
20929;DHT22;21895;47.072;15.132;2024-01-30T02:56:04;-4.70;99.90
20929;DHT22;21895;47.072;15.132;2024-01-30T02:58:31;-4.70;99.90
20929;DHT22;21895;47.072;15.132;2024-01-30T03:00:58;-4.80;99.90
20929;DHT22;21895;47.072;15.132;2024-01-30T03:03:25;-4.70;99.90
20929;DHT22;21895;47.072;15.132;2024-01-30T03:05:51;-4.60;99.90
20929;DHT22;21895;47.072;15.132;2024-01-30T03:08:18;-4.60;99.90
20929;DHT22;21895;47.072;15.132;2024-01-30T03:10:45;-4.60;99.90
20929;DHT22;21895;47.072;15.132;2024-01-30T03:13:11;-4.80;99.90
20929;DHT22;21895;47.072;15.132;2024-01-30T03:15:38;-4.90;99.90
20929;DHT22;21895;47.072;15.132;2024-01-30T03:18:05;-4.80;99.90
20929;DHT22;21895;47.072;15.132;2024-01-30T03:20:32;-4.60;99.90
20929;DHT22;21895;47.072;15.132;2024-01-30T03:23:00;-4.50;99.90
20929;DHT22;21895;47.072;15.132;2024-01-30T03:25:27;-4.50;99.90
20929;DHT22;21895;47.072;15.132;2024-01-30T03:27:53;-4.60;99.90
20929;DHT22;21895;47.072;15.132;2024-01-30T03:30:20;-4.70;99.90
20929;DHT22;21895;47.072;15.132;2024-01-30T03:32:46;-4.60;99.90
20929;DHT22;21895;47.072;15.132;2024-01-30T03:35:13;-4.70;99.90
20929;DHT22;21895;47.072;15.132;2024-01-30T03:37:40;-4.80;99.90
20929;DHT22;21895;47.072;15.132;2024-01-30T03:40:07;-4.90;99.90
20929;DHT22;21895;47.072;15.132;2024-01-30T03:42:34;-4.90;99.90
20929;DHT22;21895;47.072;15.132;2024-01-30T03:45:01;-4.70;99.90
20929;DHT22;21895;47.072;15.132;2024-01-30T03:47:28;-4.80;99.90
20929;DHT22;21895;47.072;15.132;2024-01-30T03:49:55;-5.10;99.90
20929;DHT22;21895;47.072;15.132;2024-01-30T03:52:21;-5.00;99.90
20929;DHT22;21895;47.072;15.132;2024-01-30T03:54:48;-5.00;99.90
20929;DHT22;21895;47.072;15.132;2024-01-30T03:57:15;-5.00;99.90
20929;DHT22;21895;47.072;15.132;2024-01-30T03:59:42;-5.00;99.90
20929;DHT22;21895;47.072;15.132;2024-01-30T04:02:10;-5.00;99.90
20929;DHT22;21895;47.072;15.132;2024-01-30T04:04:38;-5.00;99.90
20929;DHT22;21895;47.072;15.132;2024-01-30T04:07:04;-5.00;99.90
20929;DHT22;21895;47.072;15.132;2024-01-30T04:09:31;-4.90;99.90
20929;DHT22;21895;47.072;15.132;2024-01-30T04:11:58;-4.80;99.90
20929;DHT22;21895;47.072;15.132;2024-01-30T04:14:25;-4.80;99.90
20929;DHT22;21895;47.072;15.132;2024-01-30T04:16:51;-4.90;99.90
20929;DHT22;21895;47.072;15.132;2024-01-30T04:19:18;-5.00;99.90
20929;DHT22;21895;47.072;15.132;2024-01-30T04:21:45;-5.10;99.90
20929;DHT22;21895;47.072;15.132;2024-01-30T04:24:11;-5.00;99.90
20929;DHT22;21895;47.072;15.132;2024-01-30T04:26:38;-5.00;99.90
20929;DHT22;21895;47.072;15.132;2024-01-30T04:29:04;-5.00;99.90
20929;DHT22;21895;47.072;15.132;2024-01-30T04:31:31;-4.80;99.90
20929;DHT22;21895;47.072;15.132;2024-01-30T04:33:57;-4.80;99.90
20929;DHT22;21895;47.072;15.132;2024-01-30T04:36:24;-4.60;99.90
20929;DHT22;21895;47.072;15.132;2024-01-30T04:38:51;-4.50;99.90
20929;DHT22;21895;47.072;15.132;2024-01-30T04:41:17;-4.50;99.90
20929;DHT22;21895;47.072;15.132;2024-01-30T04:43:44;-4.80;99.90
20929;DHT22;21895;47.072;15.132;2024-01-30T04:46:11;-4.90;99.90
20929;DHT22;21895;47.072;15.132;2024-01-30T04:48:37;-5.10;99.90
20929;DHT22;21895;47.072;15.132;2024-01-30T04:51:04;-5.00;99.90
20929;DHT22;21895;47.072;15.132;2024-01-30T04:53:31;-5.10;99.90
20929;DHT22;21895;47.072;15.132;2024-01-30T04:55:58;-5.10;99.90
20929;DHT22;21895;47.072;15.132;2024-01-30T04:58:24;-5.10;99.90
20929;DHT22;21895;47.072;15.132;2024-01-30T05:00:51;-5.10;99.90
20929;DHT22;21895;47.072;15.132;2024-01-30T05:03:19;-5.10;99.90
20929;DHT22;21895;47.072;15.132;2024-01-30T05:05:46;-5.10;99.90
20929;DHT22;21895;47.072;15.132;2024-01-30T05:08:13;-5.00;99.90
20929;DHT22;21895;47.072;15.132;2024-01-30T05:10:39;-5.00;99.90
20929;DHT22;21895;47.072;15.132;2024-01-30T05:13:06;-5.10;99.90
20929;DHT22;21895;47.072;15.132;2024-01-30T05:15:33;-5.10;99.90
20929;DHT22;21895;47.072;15.132;2024-01-30T05:17:59;-5.10;99.90
20929;DHT22;21895;47.072;15.132;2024-01-30T05:20:26;-5.00;99.90
20929;DHT22;21895;47.072;15.132;2024-01-30T05:22:54;-5.00;99.90
20929;DHT22;21895;47.072;15.132;2024-01-30T05:25:21;-4.90;99.90
20929;DHT22;21895;47.072;15.132;2024-01-30T05:27:48;-4.70;99.90
20929;DHT22;21895;47.072;15.132;2024-01-30T05:30:14;-4.70;99.90
20929;DHT22;21895;47.072;15.132;2024-01-30T05:32:41;-4.70;99.90
20929;DHT22;21895;47.072;15.132;2024-01-30T05:35:08;-4.80;99.90
20929;DHT22;21895;47.072;15.132;2024-01-30T05:37:34;-4.90;99.90
20929;DHT22;21895;47.072;15.132;2024-01-30T05:40:01;-4.80;99.90
20929;DHT22;21895;47.072;15.132;2024-01-30T05:42:28;-4.90;99.90
20929;DHT22;21895;47.072;15.132;2024-01-30T05:44:54;-5.10;99.90
20929;DHT22;21895;47.072;15.132;2024-01-30T05:47:21;-5.10;99.90
20929;DHT22;21895;47.072;15.132;2024-01-30T05:49:47;-5.20;99.90
20929;DHT22;21895;47.072;15.132;2024-01-30T05:52:14;-5.20;99.90
20929;DHT22;21895;47.072;15.132;2024-01-30T05:54:41;-5.30;99.90
20929;DHT22;21895;47.072;15.132;2024-01-30T05:57:08;-5.30;99.90
20929;DHT22;21895;47.072;15.132;2024-01-30T05:59:34;-5.30;99.90
20929;DHT22;21895;47.072;15.132;2024-01-30T06:02:06;-5.30;99.90
20929;DHT22;21895;47.072;15.132;2024-01-30T06:04:33;-5.30;99.90
20929;DHT22;21895;47.072;15.132;2024-01-30T06:06:59;-5.30;99.90
20929;DHT22;21895;47.072;15.132;2024-01-30T06:09:28;-5.20;99.90
20929;DHT22;21895;47.072;15.132;2024-01-30T06:11:55;-5.30;99.90
20929;DHT22;21895;47.072;15.132;2024-01-30T06:14:21;-5.20;99.90
20929;DHT22;21895;47.072;15.132;2024-01-30T06:16:48;-5.30;99.90
20929;DHT22;21895;47.072;15.132;2024-01-30T06:19:15;-5.30;99.90
20929;DHT22;21895;47.072;15.132;2024-01-30T06:21:42;-5.20;99.90
20929;DHT22;21895;47.072;15.132;2024-01-30T06:24:08;-5.10;99.90
20929;DHT22;21895;47.072;15.132;2024-01-30T06:26:35;-5.20;99.90
20929;DHT22;21895;47.072;15.132;2024-01-30T06:29:02;-5.20;99.90
20929;DHT22;21895;47.072;15.132;2024-01-30T06:31:28;-5.30;99.90
20929;DHT22;21895;47.072;15.132;2024-01-30T06:33:55;-5.30;99.90
20929;DHT22;21895;47.072;15.132;2024-01-30T06:36:22;-5.50;99.90
20929;DHT22;21895;47.072;15.132;2024-01-30T06:38:48;-5.40;99.90
20929;DHT22;21895;47.072;15.132;2024-01-30T06:41:15;-5.20;99.90
20929;DHT22;21895;47.072;15.132;2024-01-30T06:43:42;-5.10;99.90
20929;DHT22;21895;47.072;15.132;2024-01-30T06:46:11;-4.80;99.90
20929;DHT22;21895;47.072;15.132;2024-01-30T06:48:37;-4.80;99.90
20929;DHT22;21895;47.072;15.132;2024-01-30T06:51:06;-4.70;99.90
20929;DHT22;21895;47.072;15.132;2024-01-30T06:53:33;-4.70;99.90
20929;DHT22;21895;47.072;15.132;2024-01-30T06:55:59;-4.70;99.90
20929;DHT22;21895;47.072;15.132;2024-01-30T06:58:26;-4.70;99.90
20929;DHT22;21895;47.072;15.132;2024-01-30T07:00:54;-4.60;99.90
20929;DHT22;21895;47.072;15.132;2024-01-30T07:03:21;-4.50;99.90
20929;DHT22;21895;47.072;15.132;2024-01-30T07:05:48;-4.50;99.90
20929;DHT22;21895;47.072;15.132;2024-01-30T07:08:15;-4.40;99.90
20929;DHT22;21895;47.072;15.132;2024-01-30T07:10:44;-4.30;99.90
20929;DHT22;21895;47.072;15.132;2024-01-30T07:13:11;-4.20;99.90
20929;DHT22;21895;47.072;15.132;2024-01-30T07:15:38;-4.00;99.90
20929;DHT22;21895;47.072;15.132;2024-01-30T07:18:05;-3.90;99.90
20929;DHT22;21895;47.072;15.132;2024-01-30T07:20:31;-3.80;99.90
20929;DHT22;21895;47.072;15.132;2024-01-30T07:22:58;-3.70;99.90
20929;DHT22;21895;47.072;15.132;2024-01-30T07:25:25;-3.60;99.90
20929;DHT22;21895;47.072;15.132;2024-01-30T07:27:53;-3.50;99.90
20929;DHT22;21895;47.072;15.132;2024-01-30T07:30:20;-3.50;99.90
20929;DHT22;21895;47.072;15.132;2024-01-30T07:32:47;-3.30;99.90
20929;DHT22;21895;47.072;15.132;2024-01-30T07:35:14;-3.20;99.90
20929;DHT22;21895;47.072;15.132;2024-01-30T07:37:41;-3.00;99.90
20929;DHT22;21895;47.072;15.132;2024-01-30T07:40:08;-3.00;99.90
20929;DHT22;21895;47.072;15.132;2024-01-30T07:42:35;-3.00;99.90
20929;DHT22;21895;47.072;15.132;2024-01-30T07:45:02;-2.90;99.90
20929;DHT22;21895;47.072;15.132;2024-01-30T07:47:29;-2.80;99.90
20929;DHT22;21895;47.072;15.132;2024-01-30T07:49:55;-2.70;99.90
20929;DHT22;21895;47.072;15.132;2024-01-30T07:52:22;-2.50;99.90
20929;DHT22;21895;47.072;15.132;2024-01-30T07:54:50;-2.30;99.90
20929;DHT22;21895;47.072;15.132;2024-01-30T07:57:17;-2.20;99.90
20929;DHT22;21895;47.072;15.132;2024-01-30T07:59:44;-2.20;99.90
20929;DHT22;21895;47.072;15.132;2024-01-30T08:02:14;-2.10;99.90
20929;DHT22;21895;47.072;15.132;2024-01-30T08:04:41;-2.00;99.90
20929;DHT22;21895;47.072;15.132;2024-01-30T08:07:08;-1.90;99.90
20929;DHT22;21895;47.072;15.132;2024-01-30T08:09:35;-1.80;99.90
20929;DHT22;21895;47.072;15.132;2024-01-30T08:12:01;-1.60;99.90
20929;DHT22;21895;47.072;15.132;2024-01-30T08:14:28;-1.50;99.90
20929;DHT22;21895;47.072;15.132;2024-01-30T08:16:55;-1.30;99.90
20929;DHT22;21895;47.072;15.132;2024-01-30T08:19:21;-1.10;99.90
20929;DHT22;21895;47.072;15.132;2024-01-30T08:21:48;-1.00;99.90
20929;DHT22;21895;47.072;15.132;2024-01-30T08:24:15;-0.90;99.90
20929;DHT22;21895;47.072;15.132;2024-01-30T08:26:42;-0.80;99.90
20929;DHT22;21895;47.072;15.132;2024-01-30T08:29:08;-0.70;99.90
20929;DHT22;21895;47.072;15.132;2024-01-30T08:31:35;-0.60;99.90
20929;DHT22;21895;47.072;15.132;2024-01-30T08:34:02;-0.50;99.90
20929;DHT22;21895;47.072;15.132;2024-01-30T08:36:29;-0.30;99.90
20929;DHT22;21895;47.072;15.132;2024-01-30T08:38:55;-0.20;99.90
20929;DHT22;21895;47.072;15.132;2024-01-30T08:41:28;-0.10;99.90
20929;DHT22;21895;47.072;15.132;2024-01-30T08:43:55;0.00;99.90
20929;DHT22;21895;47.072;15.132;2024-01-30T08:46:22;0.10;99.90
20929;DHT22;21895;47.072;15.132;2024-01-30T08:48:48;0.30;99.90
20929;DHT22;21895;47.072;15.132;2024-01-30T08:51:15;0.50;99.90
20929;DHT22;21895;47.072;15.132;2024-01-30T08:53:42;0.70;99.90
20929;DHT22;21895;47.072;15.132;2024-01-30T08:56:09;0.80;99.90
20929;DHT22;21895;47.072;15.132;2024-01-30T08:58:35;1.00;99.90
20929;DHT22;21895;47.072;15.132;2024-01-30T09:01:02;1.20;99.90
20929;DHT22;21895;47.072;15.132;2024-01-30T09:03:32;1.20;99.90
20929;DHT22;21895;47.072;15.132;2024-01-30T09:06:03;1.40;99.90
20929;DHT22;21895;47.072;15.132;2024-01-30T09:08:29;1.60;99.90
20929;DHT22;21895;47.072;15.132;2024-01-30T09:10:56;1.70;99.90
20929;DHT22;21895;47.072;15.132;2024-01-30T09:13:23;1.90;99.90
20929;DHT22;21895;47.072;15.132;2024-01-30T09:15:49;2.00;99.90
20929;DHT22;21895;47.072;15.132;2024-01-30T09:18:16;2.10;99.90
20929;DHT22;21895;47.072;15.132;2024-01-30T09:20:44;2.30;99.90
20929;DHT22;21895;47.072;15.132;2024-01-30T09:23:13;2.30;99.90
20929;DHT22;21895;47.072;15.132;2024-01-30T09:25:40;2.40;99.90
20929;DHT22;21895;47.072;15.132;2024-01-30T09:28:06;2.60;99.90
20929;DHT22;21895;47.072;15.132;2024-01-30T09:30:33;2.70;99.90
20929;DHT22;21895;47.072;15.132;2024-01-30T09:33:00;2.80;99.90
20929;DHT22;21895;47.072;15.132;2024-01-30T09:35:27;3.00;99.90
20929;DHT22;21895;47.072;15.132;2024-01-30T09:37:54;3.20;99.90
20929;DHT22;21895;47.072;15.132;2024-01-30T09:40:20;3.30;99.90
20929;DHT22;21895;47.072;15.132;2024-01-30T09:42:50;3.50;99.90
20929;DHT22;21895;47.072;15.132;2024-01-30T09:45:18;3.60;99.90
20929;DHT22;21895;47.072;15.132;2024-01-30T09:47:45;3.60;99.90
20929;DHT22;21895;47.072;15.132;2024-01-30T09:50:13;3.80;99.60
20929;DHT22;21895;47.072;15.132;2024-01-30T09:52:45;3.90;99.70
20929;DHT22;21895;47.072;15.132;2024-01-30T09:55:15;4.10;99.40
20929;DHT22;21895;47.072;15.132;2024-01-30T09:57:42;4.20;99.20
20929;DHT22;21895;47.072;15.132;2024-01-30T10:00:10;4.20;99.10
20929;DHT22;21895;47.072;15.132;2024-01-30T10:02:38;4.30;98.90
20929;DHT22;21895;47.072;15.132;2024-01-30T10:05:05;4.50;98.90
20929;DHT22;21895;47.072;15.132;2024-01-30T10:07:32;4.60;98.60
20929;DHT22;21895;47.072;15.132;2024-01-30T10:09:59;4.60;98.60
20929;DHT22;21895;47.072;15.132;2024-01-30T10:12:29;4.70;98.10
20929;DHT22;21895;47.072;15.132;2024-01-30T10:14:56;4.90;97.70
20929;DHT22;21895;47.072;15.132;2024-01-30T10:17:25;4.90;97.20
20929;DHT22;21895;47.072;15.132;2024-01-30T10:20:00;5.00;97.00
20929;DHT22;21895;47.072;15.132;2024-01-30T10:22:30;5.00;97.10
20929;DHT22;21895;47.072;15.132;2024-01-30T10:24:57;5.00;96.70
20929;DHT22;21895;47.072;15.132;2024-01-30T10:27:26;5.00;96.50
20929;DHT22;21895;47.072;15.132;2024-01-30T10:29:53;5.00;96.30
20929;DHT22;21895;47.072;15.132;2024-01-30T10:32:20;5.10;96.00
20929;DHT22;21895;47.072;15.132;2024-01-30T10:34:47;5.20;95.70
20929;DHT22;21895;47.072;15.132;2024-01-30T10:37:15;5.30;95.50
20929;DHT22;21895;47.072;15.132;2024-01-30T10:39:46;5.30;95.50
20929;DHT22;21895;47.072;15.132;2024-01-30T10:42:18;5.30;95.60
20929;DHT22;21895;47.072;15.132;2024-01-30T10:46:39;5.30;96.00
20929;DHT22;21895;47.072;15.132;2024-01-30T10:49:09;5.50;96.20
20929;DHT22;21895;47.072;15.132;2024-01-30T10:51:37;5.60;95.80
20929;DHT22;21895;47.072;15.132;2024-01-30T10:54:06;5.60;95.70
20929;DHT22;21895;47.072;15.132;2024-01-30T10:56:33;5.70;95.50
20929;DHT22;21895;47.072;15.132;2024-01-30T10:59:01;5.80;95.70
20929;DHT22;21895;47.072;15.132;2024-01-30T11:01:30;5.90;95.40
20929;DHT22;21895;47.072;15.132;2024-01-30T11:03:57;5.90;95.20
20929;DHT22;21895;47.072;15.132;2024-01-30T11:06:25;5.90;95.20
20929;DHT22;21895;47.072;15.132;2024-01-30T11:09:03;5.90;95.20
20929;DHT22;21895;47.072;15.132;2024-01-30T11:13:12;6.00;94.90
20929;DHT22;21895;47.072;15.132;2024-01-30T11:15:40;6.10;94.70
20929;DHT22;21895;47.072;15.132;2024-01-30T11:18:08;6.20;94.20
20929;DHT22;21895;47.072;15.132;2024-01-30T11:20:36;6.30;93.70
20929;DHT22;21895;47.072;15.132;2024-01-30T11:23:02;6.40;94.20
20929;DHT22;21895;47.072;15.132;2024-01-30T11:25:33;6.40;93.60
20929;DHT22;21895;47.072;15.132;2024-01-30T11:28:00;6.50;93.30
20929;DHT22;21895;47.072;15.132;2024-01-30T11:30:33;6.50;93.50
20929;DHT22;21895;47.072;15.132;2024-01-30T11:33:07;6.60;93.30
20929;DHT22;21895;47.072;15.132;2024-01-30T11:35:42;6.70;93.30
20929;DHT22;21895;47.072;15.132;2024-01-30T11:38:13;6.70;92.90
20929;DHT22;21895;47.072;15.132;2024-01-30T11:40:41;6.80;92.90
20929;DHT22;21895;47.072;15.132;2024-01-30T11:43:08;6.80;92.90
20929;DHT22;21895;47.072;15.132;2024-01-30T11:45:36;6.80;93.10
20929;DHT22;21895;47.072;15.132;2024-01-30T11:48:03;6.80;92.50
20929;DHT22;21895;47.072;15.132;2024-01-30T11:50:32;6.80;92.50
20929;DHT22;21895;47.072;15.132;2024-01-30T11:53:00;6.80;92.60
20929;DHT22;21895;47.072;15.132;2024-01-30T11:55:27;6.90;92.20
20929;DHT22;21895;47.072;15.132;2024-01-30T11:58:00;7.00;92.20
20929;DHT22;21895;47.072;15.132;2024-01-30T12:00:26;7.00;91.90
20929;DHT22;21895;47.072;15.132;2024-01-30T12:02:54;6.90;92.60
20929;DHT22;21895;47.072;15.132;2024-01-30T12:05:22;6.90;92.80
20929;DHT22;21895;47.072;15.132;2024-01-30T12:07:50;6.90;92.50
20929;DHT22;21895;47.072;15.132;2024-01-30T12:10:18;6.80;92.40
20929;DHT22;21895;47.072;15.132;2024-01-30T12:12:49;6.90;92.70
20929;DHT22;21895;47.072;15.132;2024-01-30T12:15:19;7.00;92.50
20929;DHT22;21895;47.072;15.132;2024-01-30T12:17:47;6.90;92.50
20929;DHT22;21895;47.072;15.132;2024-01-30T12:20:18;6.90;92.60
20929;DHT22;21895;47.072;15.132;2024-01-30T12:22:48;6.90;92.10
20929;DHT22;21895;47.072;15.132;2024-01-30T12:25:20;6.90;92.50
20929;DHT22;21895;47.072;15.132;2024-01-30T12:27:49;6.90;92.40
20929;DHT22;21895;47.072;15.132;2024-01-30T12:30:20;7.00;92.40
20929;DHT22;21895;47.072;15.132;2024-01-30T12:32:51;7.00;92.60
20929;DHT22;21895;47.072;15.132;2024-01-30T12:35:19;7.10;92.50
20929;DHT22;21895;47.072;15.132;2024-01-30T12:37:48;7.10;92.30
20929;DHT22;21895;47.072;15.132;2024-01-30T12:40:15;7.30;91.60
20929;DHT22;21895;47.072;15.132;2024-01-30T12:42:43;7.30;91.90
20929;DHT22;21895;47.072;15.132;2024-01-30T12:45:15;7.30;92.00
20929;DHT22;21895;47.072;15.132;2024-01-30T12:47:42;7.30;91.80
20929;DHT22;21895;47.072;15.132;2024-01-30T12:50:09;7.30;91.90
20929;DHT22;21895;47.072;15.132;2024-01-30T12:52:36;7.30;91.80
20929;DHT22;21895;47.072;15.132;2024-01-30T12:55:03;7.30;91.80
20929;DHT22;21895;47.072;15.132;2024-01-30T12:57:30;7.30;91.80
20929;DHT22;21895;47.072;15.132;2024-01-30T12:59:57;7.40;91.60
20929;DHT22;21895;47.072;15.132;2024-01-30T13:02:24;7.50;91.10
20929;DHT22;21895;47.072;15.132;2024-01-30T13:04:51;7.50;91.20
20929;DHT22;21895;47.072;15.132;2024-01-30T13:07:18;7.50;91.50
20929;DHT22;21895;47.072;15.132;2024-01-30T13:09:46;7.60;91.00
20929;DHT22;21895;47.072;15.132;2024-01-30T13:12:13;7.50;91.10
20929;DHT22;21895;47.072;15.132;2024-01-30T13:14:40;7.40;91.40
20929;DHT22;21895;47.072;15.132;2024-01-30T13:17:06;7.50;91.40
20929;DHT22;21895;47.072;15.132;2024-01-30T13:19:33;7.40;91.40
20929;DHT22;21895;47.072;15.132;2024-01-30T13:22:00;7.40;91.20
20929;DHT22;21895;47.072;15.132;2024-01-30T13:24:26;7.50;91.30
20929;DHT22;21895;47.072;15.132;2024-01-30T13:26:53;7.50;91.30
20929;DHT22;21895;47.072;15.132;2024-01-30T13:29:19;7.50;91.40
20929;DHT22;21895;47.072;15.132;2024-01-30T13:31:46;7.40;91.40
20929;DHT22;21895;47.072;15.132;2024-01-30T13:34:13;7.40;91.10
20929;DHT22;21895;47.072;15.132;2024-01-30T13:36:42;7.40;91.20
20929;DHT22;21895;47.072;15.132;2024-01-30T13:39:09;7.50;91.80
20929;DHT22;21895;47.072;15.132;2024-01-30T13:41:36;7.50;91.50
20929;DHT22;21895;47.072;15.132;2024-01-30T13:44:03;7.50;91.60
20929;DHT22;21895;47.072;15.132;2024-01-30T13:46:30;7.40;91.70
20929;DHT22;21895;47.072;15.132;2024-01-30T13:48:57;7.30;91.70
20929;DHT22;21895;47.072;15.132;2024-01-30T13:51:24;7.40;91.70
20929;DHT22;21895;47.072;15.132;2024-01-30T13:53:50;7.40;91.60
20929;DHT22;21895;47.072;15.132;2024-01-30T13:56:17;7.40;91.60
20929;DHT22;21895;47.072;15.132;2024-01-30T13:58:44;7.30;91.90
20929;DHT22;21895;47.072;15.132;2024-01-30T14:01:11;7.30;91.90
20929;DHT22;21895;47.072;15.132;2024-01-30T14:03:37;7.30;91.80
20929;DHT22;21895;47.072;15.132;2024-01-30T14:06:04;7.40;91.80
20929;DHT22;21895;47.072;15.132;2024-01-30T14:08:32;7.40;91.80
20929;DHT22;21895;47.072;15.132;2024-01-30T14:10:58;7.40;92.00
20929;DHT22;21895;47.072;15.132;2024-01-30T14:13:25;7.30;91.90
20929;DHT22;21895;47.072;15.132;2024-01-30T14:15:53;7.20;92.10
20929;DHT22;21895;47.072;15.132;2024-01-30T14:18:20;7.10;92.20
20929;DHT22;21895;47.072;15.132;2024-01-30T14:20:47;7.00;92.20
20929;DHT22;21895;47.072;15.132;2024-01-30T14:23:14;7.00;92.30
20929;DHT22;21895;47.072;15.132;2024-01-30T14:25:43;7.00;92.10
20929;DHT22;21895;47.072;15.132;2024-01-30T14:28:10;6.90;92.30
20929;DHT22;21895;47.072;15.132;2024-01-30T14:30:37;6.90;92.30
20929;DHT22;21895;47.072;15.132;2024-01-30T14:33:04;7.00;92.10
20929;DHT22;21895;47.072;15.132;2024-01-30T14:35:31;6.90;92.20
20929;DHT22;21895;47.072;15.132;2024-01-30T14:37:57;6.80;92.20
20929;DHT22;21895;47.072;15.132;2024-01-30T14:40:24;6.80;92.20
20929;DHT22;21895;47.072;15.132;2024-01-30T14:42:50;6.70;92.20
20929;DHT22;21895;47.072;15.132;2024-01-30T14:45:17;6.60;92.50
20929;DHT22;21895;47.072;15.132;2024-01-30T14:47:44;6.60;92.50
20929;DHT22;21895;47.072;15.132;2024-01-30T14:50:11;6.60;92.20
20929;DHT22;21895;47.072;15.132;2024-01-30T14:52:38;6.50;92.50
20929;DHT22;21895;47.072;15.132;2024-01-30T14:55:07;6.40;92.70
20929;DHT22;21895;47.072;15.132;2024-01-30T14:57:34;6.30;92.90
20929;DHT22;21895;47.072;15.132;2024-01-30T15:00:01;6.30;93.10
20929;DHT22;21895;47.072;15.132;2024-01-30T15:02:28;6.30;92.70
20929;DHT22;21895;47.072;15.132;2024-01-30T15:04:54;6.30;92.90
20929;DHT22;21895;47.072;15.132;2024-01-30T15:07:21;6.20;93.10
20929;DHT22;21895;47.072;15.132;2024-01-30T15:10:02;6.10;93.20
20929;DHT22;21895;47.072;15.132;2024-01-30T15:12:30;6.00;93.30
20929;DHT22;21895;47.072;15.132;2024-01-30T15:14:57;5.90;93.50
20929;DHT22;21895;47.072;15.132;2024-01-30T15:17:23;5.90;93.50
20929;DHT22;21895;47.072;15.132;2024-01-30T15:19:50;5.90;93.40
20929;DHT22;21895;47.072;15.132;2024-01-30T15:22:17;5.80;93.60
20929;DHT22;21895;47.072;15.132;2024-01-30T15:24:43;5.70;93.80
20929;DHT22;21895;47.072;15.132;2024-01-30T15:27:10;5.50;94.00